sensor_id;sensor_type;location;lat;lon;timestamp;P1;P2;P0
73241;PMS5003;65659;49.234;-2.094;2023-04-30T00:00:30;26;24;
73241;PMS5003;65659;49.234;-2.094;2023-04-30T00:02:55;24;22;
73241;PMS5003;65659;49.234;-2.094;2023-04-30T00:05:20;28;27;
73241;PMS5003;65659;49.234;-2.094;2023-04-30T00:10:12;23;22;
73241;PMS5003;65659;49.234;-2.094;2023-04-30T00:12:37;28;27;
73241;PMS5003;65659;49.234;-2.094;2023-04-30T00:15:03;24;22;
73241;PMS5003;65659;49.234;-2.094;2023-04-30T00:17:28;24;23;
73241;PMS5003;65659;49.234;-2.094;2023-04-30T00:19:53;21;20;
73241;PMS5003;65659;49.234;-2.094;2023-04-30T00:22:18;23;21;
73241;PMS5003;65659;49.234;-2.094;2023-04-30T00:24:43;24;22;
73241;PMS5003;65659;49.234;-2.094;2023-04-30T00:27:08;27;26;
73241;PMS5003;65659;49.234;-2.094;2023-04-30T00:29:33;26;25;
73241;PMS5003;65659;49.234;-2.094;2023-04-30T00:31:59;26;25;
73241;PMS5003;65659;49.234;-2.094;2023-04-30T00:34:25;21;21;
73241;PMS5003;65659;49.234;-2.094;2023-04-30T00:36:50;25;24;
73241;PMS5003;65659;49.234;-2.094;2023-04-30T00:39:16;21;20;
73241;PMS5003;65659;49.234;-2.094;2023-04-30T00:41:41;29;28;
73241;PMS5003;65659;49.234;-2.094;2023-04-30T00:44:06;22;22;
73241;PMS5003;65659;49.234;-2.094;2023-04-30T00:46:31;24;24;
73241;PMS5003;65659;49.234;-2.094;2023-04-30T00:48:57;26;25;
73241;PMS5003;65659;49.234;-2.094;2023-04-30T00:51:22;22;21;
73241;PMS5003;65659;49.234;-2.094;2023-04-30T00:53:47;28;26;
73241;PMS5003;65659;49.234;-2.094;2023-04-30T00:56:13;27;24;
73241;PMS5003;65659;49.234;-2.094;2023-04-30T00:58:38;22;21;
73241;PMS5003;65659;49.234;-2.094;2023-04-30T01:01:03;22;22;
73241;PMS5003;65659;49.234;-2.094;2023-04-30T01:03:49;23;23;
73241;PMS5003;65659;49.234;-2.094;2023-04-30T01:05:54;27;26;
73241;PMS5003;65659;49.234;-2.094;2023-04-30T01:08:20;20;19;
73241;PMS5003;65659;49.234;-2.094;2023-04-30T01:10:47;23;22;
73241;PMS5003;65659;49.234;-2.094;2023-04-30T01:13:11;31;30;
73241;PMS5003;65659;49.234;-2.094;2023-04-30T01:15:37;23;21;
73241;PMS5003;65659;49.234;-2.094;2023-04-30T01:18:02;30;30;
73241;PMS5003;65659;49.234;-2.094;2023-04-30T01:20:27;25;24;
73241;PMS5003;65659;49.234;-2.094;2023-04-30T01:22:54;23;22;
73241;PMS5003;65659;49.234;-2.094;2023-04-30T01:25:21;26;25;
73241;PMS5003;65659;49.234;-2.094;2023-04-30T01:30:08;25;24;
73241;PMS5003;65659;49.234;-2.094;2023-04-30T01:32:34;25;23;
73241;PMS5003;65659;49.234;-2.094;2023-04-30T01:34:59;25;25;
73241;PMS5003;65659;49.234;-2.094;2023-04-30T01:42:17;24;23;
73241;PMS5003;65659;49.234;-2.094;2023-04-30T01:44:47;25;23;
73241;PMS5003;65659;49.234;-2.094;2023-04-30T01:47:08;33;30;
73241;PMS5003;65659;49.234;-2.094;2023-04-30T01:49:36;23;22;
73241;PMS5003;65659;49.234;-2.094;2023-04-30T01:51:59;24;23;
73241;PMS5003;65659;49.234;-2.094;2023-04-30T01:54:25;24;24;
73241;PMS5003;65659;49.234;-2.094;2023-04-30T01:56:49;23;23;
73241;PMS5003;65659;49.234;-2.094;2023-04-30T01:59:13;24;23;
73241;PMS5003;65659;49.234;-2.094;2023-04-30T02:01:38;29;28;
73241;PMS5003;65659;49.234;-2.094;2023-04-30T02:04:04;28;25;
73241;PMS5003;65659;49.234;-2.094;2023-04-30T02:06:29;29;28;
73241;PMS5003;65659;49.234;-2.094;2023-04-30T02:08:55;25;25;
73241;PMS5003;65659;49.234;-2.094;2023-04-30T02:11:20;25;24;
73241;PMS5003;65659;49.234;-2.094;2023-04-30T02:13:45;26;25;
73241;PMS5003;65659;49.234;-2.094;2023-04-30T02:16:10;23;23;
73241;PMS5003;65659;49.234;-2.094;2023-04-30T02:18:36;19;18;
73241;PMS5003;65659;49.234;-2.094;2023-04-30T02:21:01;23;21;
73241;PMS5003;65659;49.234;-2.094;2023-04-30T02:23:26;24;23;
73241;PMS5003;65659;49.234;-2.094;2023-04-30T02:28:17;25;22;
73241;PMS5003;65659;49.234;-2.094;2023-04-30T02:30:43;23;22;
73241;PMS5003;65659;49.234;-2.094;2023-04-30T02:33:08;24;23;
73241;PMS5003;65659;49.234;-2.094;2023-04-30T02:35:34;21;20;
73241;PMS5003;65659;49.234;-2.094;2023-04-30T02:38:04;20;19;
73241;PMS5003;65659;49.234;-2.094;2023-04-30T02:40:24;23;22;
73241;PMS5003;65659;49.234;-2.094;2023-04-30T02:42:50;24;23;
73241;PMS5003;65659;49.234;-2.094;2023-04-30T02:45:15;27;26;
73241;PMS5003;65659;49.234;-2.094;2023-04-30T02:47:40;27;27;
73241;PMS5003;65659;49.234;-2.094;2023-04-30T02:52:31;28;26;
73241;PMS5003;65659;49.234;-2.094;2023-04-30T02:54:56;25;24;
73241;PMS5003;65659;49.234;-2.094;2023-04-30T02:57:22;23;21;
73241;PMS5003;65659;49.234;-2.094;2023-04-30T02:59:47;23;23;
73241;PMS5003;65659;49.234;-2.094;2023-04-30T03:02:12;23;23;
73241;PMS5003;65659;49.234;-2.094;2023-04-30T03:04:37;27;26;
73241;PMS5003;65659;49.234;-2.094;2023-04-30T03:07:03;26;26;
73241;PMS5003;65659;49.234;-2.094;2023-04-30T03:09:29;21;21;
73241;PMS5003;65659;49.234;-2.094;2023-04-30T03:11:54;19;19;
73241;PMS5003;65659;49.234;-2.094;2023-04-30T03:14:20;25;22;
73241;PMS5003;65659;49.234;-2.094;2023-04-30T03:16:45;23;23;
73241;PMS5003;65659;49.234;-2.094;2023-04-30T03:19:10;25;23;
73241;PMS5003;65659;49.234;-2.094;2023-04-30T03:21:35;25;24;
73241;PMS5003;65659;49.234;-2.094;2023-04-30T03:24:00;21;21;
73241;PMS5003;65659;49.234;-2.094;2023-04-30T03:26:26;23;22;
73241;PMS5003;65659;49.234;-2.094;2023-04-30T03:28:51;22;20;
73241;PMS5003;65659;49.234;-2.094;2023-04-30T03:31:16;22;22;
73241;PMS5003;65659;49.234;-2.094;2023-04-30T03:33:42;24;24;
73241;PMS5003;65659;49.234;-2.094;2023-04-30T03:36:08;23;23;
73241;PMS5003;65659;49.234;-2.094;2023-04-30T03:38:34;24;24;
73241;PMS5003;65659;49.234;-2.094;2023-04-30T03:40:59;21;18;
73241;PMS5003;65659;49.234;-2.094;2023-04-30T03:43:24;21;21;
73241;PMS5003;65659;49.234;-2.094;2023-04-30T03:45:49;31;28;
73241;PMS5003;65659;49.234;-2.094;2023-04-30T03:48:15;21;21;
73241;PMS5003;65659;49.234;-2.094;2023-04-30T03:50:41;25;24;
73241;PMS5003;65659;49.234;-2.094;2023-04-30T03:53:06;22;21;
73241;PMS5003;65659;49.234;-2.094;2023-04-30T03:55:32;24;22;
73241;PMS5003;65659;49.234;-2.094;2023-04-30T03:57:58;24;23;
73241;PMS5003;65659;49.234;-2.094;2023-04-30T04:00:23;22;22;
73241;PMS5003;65659;49.234;-2.094;2023-04-30T04:02:48;32;31;
73241;PMS5003;65659;49.234;-2.094;2023-04-30T04:05:14;25;23;
73241;PMS5003;65659;49.234;-2.094;2023-04-30T04:07:39;20;20;
73241;PMS5003;65659;49.234;-2.094;2023-04-30T04:10:05;21;21;
73241;PMS5003;65659;49.234;-2.094;2023-04-30T04:12:30;20;19;
73241;PMS5003;65659;49.234;-2.094;2023-04-30T04:14:55;22;22;
73241;PMS5003;65659;49.234;-2.094;2023-04-30T04:17:20;28;28;
73241;PMS5003;65659;49.234;-2.094;2023-04-30T04:19:46;21;20;
73241;PMS5003;65659;49.234;-2.094;2023-04-30T04:22:12;23;23;
73241;PMS5003;65659;49.234;-2.094;2023-04-30T04:24:37;22;20;
73241;PMS5003;65659;49.234;-2.094;2023-04-30T04:27:03;21;20;
73241;PMS5003;65659;49.234;-2.094;2023-04-30T04:29:29;20;20;
73241;PMS5003;65659;49.234;-2.094;2023-04-30T04:31:54;22;22;
73241;PMS5003;65659;49.234;-2.094;2023-04-30T04:34:20;21;21;
73241;PMS5003;65659;49.234;-2.094;2023-04-30T04:36:45;22;20;
73241;PMS5003;65659;49.234;-2.094;2023-04-30T04:39:10;22;20;
73241;PMS5003;65659;49.234;-2.094;2023-04-30T04:41:35;23;23;
73241;PMS5003;65659;49.234;-2.094;2023-04-30T04:44:01;28;26;
73241;PMS5003;65659;49.234;-2.094;2023-04-30T04:46:27;21;21;
73241;PMS5003;65659;49.234;-2.094;2023-04-30T04:48:53;26;25;
73241;PMS5003;65659;49.234;-2.094;2023-04-30T04:51:18;22;22;
73241;PMS5003;65659;49.234;-2.094;2023-04-30T04:53:43;28;27;
73241;PMS5003;65659;49.234;-2.094;2023-04-30T04:56:09;28;28;
73241;PMS5003;65659;49.234;-2.094;2023-04-30T04:58:34;29;29;
73241;PMS5003;65659;49.234;-2.094;2023-04-30T05:01:00;32;30;
73241;PMS5003;65659;49.234;-2.094;2023-04-30T05:03:25;24;24;
73241;PMS5003;65659;49.234;-2.094;2023-04-30T05:05:51;24;23;
73241;PMS5003;65659;49.234;-2.094;2023-04-30T05:08:17;25;22;
73241;PMS5003;65659;49.234;-2.094;2023-04-30T05:10:42;29;28;
73241;PMS5003;65659;49.234;-2.094;2023-04-30T05:13:07;23;22;
73241;PMS5003;65659;49.234;-2.094;2023-04-30T05:15:33;28;28;
73241;PMS5003;65659;49.234;-2.094;2023-04-30T05:17:58;26;26;
73241;PMS5003;65659;49.234;-2.094;2023-04-30T05:20:24;24;24;
73241;PMS5003;65659;49.234;-2.094;2023-04-30T05:22:49;30;29;
73241;PMS5003;65659;49.234;-2.094;2023-04-30T05:25:14;25;24;
73241;PMS5003;65659;49.234;-2.094;2023-04-30T05:27:39;22;22;
73241;PMS5003;65659;49.234;-2.094;2023-04-30T05:30:10;28;26;
73241;PMS5003;65659;49.234;-2.094;2023-04-30T05:32:30;34;33;
73241;PMS5003;65659;49.234;-2.094;2023-04-30T05:34:55;34;32;
73241;PMS5003;65659;49.234;-2.094;2023-04-30T05:37:20;35;35;
73241;PMS5003;65659;49.234;-2.094;2023-04-30T05:39:46;27;27;
73241;PMS5003;65659;49.234;-2.094;2023-04-30T05:42:11;32;32;
73241;PMS5003;65659;49.234;-2.094;2023-04-30T05:44:37;28;28;
73241;PMS5003;65659;49.234;-2.094;2023-04-30T05:47:02;33;33;
73241;PMS5003;65659;49.234;-2.094;2023-04-30T05:49:28;30;29;
73241;PMS5003;65659;49.234;-2.094;2023-04-30T05:51:52;28;27;
73241;PMS5003;65659;49.234;-2.094;2023-04-30T05:54:18;34;32;
73241;PMS5003;65659;49.234;-2.094;2023-04-30T05:56:43;35;34;
73241;PMS5003;65659;49.234;-2.094;2023-04-30T05:59:09;32;30;
73241;PMS5003;65659;49.234;-2.094;2023-04-30T06:01:34;25;25;
73241;PMS5003;65659;49.234;-2.094;2023-04-30T06:03:59;38;36;
73241;PMS5003;65659;49.234;-2.094;2023-04-30T06:06:25;27;26;
73241;PMS5003;65659;49.234;-2.094;2023-04-30T06:08:51;29;29;
73241;PMS5003;65659;49.234;-2.094;2023-04-30T06:11:16;36;36;
73241;PMS5003;65659;49.234;-2.094;2023-04-30T06:13:42;27;26;
73241;PMS5003;65659;49.234;-2.094;2023-04-30T06:16:07;33;32;
73241;PMS5003;65659;49.234;-2.094;2023-04-30T06:18:32;35;33;
73241;PMS5003;65659;49.234;-2.094;2023-04-30T06:20:57;26;25;
73241;PMS5003;65659;49.234;-2.094;2023-04-30T06:23:22;28;28;
73241;PMS5003;65659;49.234;-2.094;2023-04-30T06:25:48;30;29;
73241;PMS5003;65659;49.234;-2.094;2023-04-30T06:28:13;31;31;
73241;PMS5003;65659;49.234;-2.094;2023-04-30T06:30:38;29;29;
73241;PMS5003;65659;49.234;-2.094;2023-04-30T06:33:03;27;26;
73241;PMS5003;65659;49.234;-2.094;2023-04-30T06:35:28;28;28;
73241;PMS5003;65659;49.234;-2.094;2023-04-30T06:37:54;24;24;
73241;PMS5003;65659;49.234;-2.094;2023-04-30T06:40:19;23;22;
73241;PMS5003;65659;49.234;-2.094;2023-04-30T06:42:45;27;27;
73241;PMS5003;65659;49.234;-2.094;2023-04-30T06:45:11;23;22;
73241;PMS5003;65659;49.234;-2.094;2023-04-30T06:47:37;26;26;
73241;PMS5003;65659;49.234;-2.094;2023-04-30T06:50:02;24;24;
73241;PMS5003;65659;49.234;-2.094;2023-04-30T06:52:28;29;29;
73241;PMS5003;65659;49.234;-2.094;2023-04-30T06:54:53;24;24;
73241;PMS5003;65659;49.234;-2.094;2023-04-30T06:57:19;26;26;
73241;PMS5003;65659;49.234;-2.094;2023-04-30T06:59:44;26;23;
73241;PMS5003;65659;49.234;-2.094;2023-04-30T07:02:09;25;25;
73241;PMS5003;65659;49.234;-2.094;2023-04-30T07:04:34;26;25;
73241;PMS5003;65659;49.234;-2.094;2023-04-30T07:07:00;26;24;
73241;PMS5003;65659;49.234;-2.094;2023-04-30T07:09:25;25;24;
73241;PMS5003;65659;49.234;-2.094;2023-04-30T07:11:51;26;26;
73241;PMS5003;65659;49.234;-2.094;2023-04-30T07:14:16;30;29;
73241;PMS5003;65659;49.234;-2.094;2023-04-30T07:16:41;32;30;
73241;PMS5003;65659;49.234;-2.094;2023-04-30T07:19:07;27;26;
73241;PMS5003;65659;49.234;-2.094;2023-04-30T07:21:32;28;26;
73241;PMS5003;65659;49.234;-2.094;2023-04-30T07:23:57;28;26;
73241;PMS5003;65659;49.234;-2.094;2023-04-30T07:26:22;30;29;
73241;PMS5003;65659;49.234;-2.094;2023-04-30T07:28:48;26;26;
73241;PMS5003;65659;49.234;-2.094;2023-04-30T07:31:13;23;22;
73241;PMS5003;65659;49.234;-2.094;2023-04-30T07:33:39;21;21;
73241;PMS5003;65659;49.234;-2.094;2023-04-30T07:36:04;26;26;
73241;PMS5003;65659;49.234;-2.094;2023-04-30T07:38:29;31;31;
73241;PMS5003;65659;49.234;-2.094;2023-04-30T07:40:55;30;30;
73241;PMS5003;65659;49.234;-2.094;2023-04-30T07:43:20;29;29;
73241;PMS5003;65659;49.234;-2.094;2023-04-30T07:45:45;24;24;
73241;PMS5003;65659;49.234;-2.094;2023-04-30T07:48:11;24;24;
73241;PMS5003;65659;49.234;-2.094;2023-04-30T07:50:36;26;24;
73241;PMS5003;65659;49.234;-2.094;2023-04-30T07:53:02;26;26;
73241;PMS5003;65659;49.234;-2.094;2023-04-30T07:55:27;28;26;
73241;PMS5003;65659;49.234;-2.094;2023-04-30T07:57:53;27;24;
73241;PMS5003;65659;49.234;-2.094;2023-04-30T08:00:18;26;25;
73241;PMS5003;65659;49.234;-2.094;2023-04-30T08:02:44;27;25;
73241;PMS5003;65659;49.234;-2.094;2023-04-30T08:05:09;26;25;
73241;PMS5003;65659;49.234;-2.094;2023-04-30T08:07:35;29;29;
73241;PMS5003;65659;49.234;-2.094;2023-04-30T08:10:01;25;25;
73241;PMS5003;65659;49.234;-2.094;2023-04-30T08:12:26;23;23;
73241;PMS5003;65659;49.234;-2.094;2023-04-30T08:17:17;28;25;
73241;PMS5003;65659;49.234;-2.094;2023-04-30T08:19:42;30;28;
73241;PMS5003;65659;49.234;-2.094;2023-04-30T08:22:08;30;29;
73241;PMS5003;65659;49.234;-2.094;2023-04-30T08:24:34;24;23;
73241;PMS5003;65659;49.234;-2.094;2023-04-30T08:26:59;27;26;
73241;PMS5003;65659;49.234;-2.094;2023-04-30T08:29:24;27;27;
73241;PMS5003;65659;49.234;-2.094;2023-04-30T08:31:50;33;30;
73241;PMS5003;65659;49.234;-2.094;2023-04-30T08:34:16;26;26;
73241;PMS5003;65659;49.234;-2.094;2023-04-30T08:36:41;28;25;
73241;PMS5003;65659;49.234;-2.094;2023-04-30T08:39:07;36;36;
73241;PMS5003;65659;49.234;-2.094;2023-04-30T08:41:33;25;25;
73241;PMS5003;65659;49.234;-2.094;2023-04-30T08:43:59;30;29;
73241;PMS5003;65659;49.234;-2.094;2023-04-30T08:46:23;25;24;
73241;PMS5003;65659;49.234;-2.094;2023-04-30T08:48:49;32;32;
73241;PMS5003;65659;49.234;-2.094;2023-04-30T08:51:14;28;27;
73241;PMS5003;65659;49.234;-2.094;2023-04-30T08:53:41;30;29;
73241;PMS5003;65659;49.234;-2.094;2023-04-30T08:56:07;30;29;
73241;PMS5003;65659;49.234;-2.094;2023-04-30T08:58:31;30;29;
73241;PMS5003;65659;49.234;-2.094;2023-04-30T09:00:57;24;24;
73241;PMS5003;65659;49.234;-2.094;2023-04-30T09:03:22;24;24;
73241;PMS5003;65659;49.234;-2.094;2023-04-30T09:05:48;25;24;
73241;PMS5003;65659;49.234;-2.094;2023-04-30T09:08:15;23;23;
73241;PMS5003;65659;49.234;-2.094;2023-04-30T09:10:39;20;20;
73241;PMS5003;65659;49.234;-2.094;2023-04-30T09:13:05;26;25;
73241;PMS5003;65659;49.234;-2.094;2023-04-30T09:15:30;30;29;
73241;PMS5003;65659;49.234;-2.094;2023-04-30T09:20:21;25;24;
73241;PMS5003;65659;49.234;-2.094;2023-04-30T09:22:46;23;22;
73241;PMS5003;65659;49.234;-2.094;2023-04-30T09:25:11;26;26;
73241;PMS5003;65659;49.234;-2.094;2023-04-30T09:27:36;23;22;
73241;PMS5003;65659;49.234;-2.094;2023-04-30T09:30:02;24;24;
73241;PMS5003;65659;49.234;-2.094;2023-04-30T09:32:27;24;23;
73241;PMS5003;65659;49.234;-2.094;2023-04-30T09:34:53;28;27;
73241;PMS5003;65659;49.234;-2.094;2023-04-30T09:37:17;26;26;
73241;PMS5003;65659;49.234;-2.094;2023-04-30T09:39:46;25;24;
73241;PMS5003;65659;49.234;-2.094;2023-04-30T09:42:09;28;27;
73241;PMS5003;65659;49.234;-2.094;2023-04-30T09:44:35;20;20;
73241;PMS5003;65659;49.234;-2.094;2023-04-30T09:46:59;24;23;
73241;PMS5003;65659;49.234;-2.094;2023-04-30T09:49:25;26;24;
73241;PMS5003;65659;49.234;-2.094;2023-04-30T09:51:57;22;22;
73241;PMS5003;65659;49.234;-2.094;2023-04-30T09:54:16;21;20;
73241;PMS5003;65659;49.234;-2.094;2023-04-30T09:56:41;25;25;
73241;PMS5003;65659;49.234;-2.094;2023-04-30T09:59:06;26;26;
73241;PMS5003;65659;49.234;-2.094;2023-04-30T10:01:31;20;20;
73241;PMS5003;65659;49.234;-2.094;2023-04-30T10:03:57;25;24;
73241;PMS5003;65659;49.234;-2.094;2023-04-30T10:06:22;23;23;
73241;PMS5003;65659;49.234;-2.094;2023-04-30T10:08:50;30;29;
73241;PMS5003;65659;49.234;-2.094;2023-04-30T10:11:14;23;22;
73241;PMS5003;65659;49.234;-2.094;2023-04-30T10:13:40;24;24;
73241;PMS5003;65659;49.234;-2.094;2023-04-30T10:16:06;23;22;
73241;PMS5003;65659;49.234;-2.094;2023-04-30T10:18:32;25;23;
73241;PMS5003;65659;49.234;-2.094;2023-04-30T10:20:56;26;25;
73241;PMS5003;65659;49.234;-2.094;2023-04-30T10:23:22;23;22;
73241;PMS5003;65659;49.234;-2.094;2023-04-30T10:25:47;25;25;
73241;PMS5003;65659;49.234;-2.094;2023-04-30T10:28:12;22;22;
73241;PMS5003;65659;49.234;-2.094;2023-04-30T10:30:37;23;22;
73241;PMS5003;65659;49.234;-2.094;2023-04-30T10:33:05;22;21;
73241;PMS5003;65659;49.234;-2.094;2023-04-30T10:35:29;27;27;
73241;PMS5003;65659;49.234;-2.094;2023-04-30T10:37:56;25;23;
73241;PMS5003;65659;49.234;-2.094;2023-04-30T10:40:19;27;27;
73241;PMS5003;65659;49.234;-2.094;2023-04-30T10:42:45;23;23;
73241;PMS5003;65659;49.234;-2.094;2023-04-30T10:45:10;21;20;
73241;PMS5003;65659;49.234;-2.094;2023-04-30T10:47:35;22;22;
73241;PMS5003;65659;49.234;-2.094;2023-04-30T10:50:04;20;20;
73241;PMS5003;65659;49.234;-2.094;2023-04-30T10:52:26;18;17;
73241;PMS5003;65659;49.234;-2.094;2023-04-30T10:54:52;18;18;
73241;PMS5003;65659;49.234;-2.094;2023-04-30T10:57:16;16;16;
73241;PMS5003;65659;49.234;-2.094;2023-04-30T10:59:42;15;14;
73241;PMS5003;65659;49.234;-2.094;2023-04-30T11:02:07;15;15;
73241;PMS5003;65659;49.234;-2.094;2023-04-30T11:04:32;16;15;
73241;PMS5003;65659;49.234;-2.094;2023-04-30T11:11:49;25;24;
73241;PMS5003;65659;49.234;-2.094;2023-04-30T11:14:19;16;15;
73241;PMS5003;65659;49.234;-2.094;2023-04-30T11:16:39;18;17;
73241;PMS5003;65659;49.234;-2.094;2023-04-30T11:19:05;14;14;
73241;PMS5003;65659;49.234;-2.094;2023-04-30T11:21:30;19;18;
73241;PMS5003;65659;49.234;-2.094;2023-04-30T11:24:01;19;18;
73241;PMS5003;65659;49.234;-2.094;2023-04-30T11:26:21;16;16;
73241;PMS5003;65659;49.234;-2.094;2023-04-30T11:31:12;21;21;
73241;PMS5003;65659;49.234;-2.094;2023-04-30T11:33:39;18;17;
73241;PMS5003;65659;49.234;-2.094;2023-04-30T11:36:03;20;19;
73241;PMS5003;65659;49.234;-2.094;2023-04-30T11:38:28;22;22;
73241;PMS5003;65659;49.234;-2.094;2023-04-30T11:40:54;18;17;
73241;PMS5003;65659;49.234;-2.094;2023-04-30T11:43:23;22;22;
73241;PMS5003;65659;49.234;-2.094;2023-04-30T11:45:46;22;21;
73241;PMS5003;65659;49.234;-2.094;2023-04-30T11:48:11;22;22;
73241;PMS5003;65659;49.234;-2.094;2023-04-30T11:50:41;21;21;
73241;PMS5003;65659;49.234;-2.094;2023-04-30T11:53:01;17;16;
73241;PMS5003;65659;49.234;-2.094;2023-04-30T11:55:27;20;19;
73241;PMS5003;65659;49.234;-2.094;2023-04-30T11:57:53;19;18;
73241;PMS5003;65659;49.234;-2.094;2023-04-30T12:00:18;20;18;
73241;PMS5003;65659;49.234;-2.094;2023-04-30T12:02:43;22;21;
73241;PMS5003;65659;49.234;-2.094;2023-04-30T12:05:14;19;19;
73241;PMS5003;65659;49.234;-2.094;2023-04-30T12:07:34;17;17;
73241;PMS5003;65659;49.234;-2.094;2023-04-30T12:09:59;25;24;
73241;PMS5003;65659;49.234;-2.094;2023-04-30T12:12:26;17;17;
73241;PMS5003;65659;49.234;-2.094;2023-04-30T12:14:51;17;17;
73241;PMS5003;65659;49.234;-2.094;2023-04-30T12:19:41;16;16;
73241;PMS5003;65659;49.234;-2.094;2023-04-30T12:22:07;17;17;
73241;PMS5003;65659;49.234;-2.094;2023-04-30T12:24:33;16;14;
73241;PMS5003;65659;49.234;-2.094;2023-04-30T12:26:58;17;15;
73241;PMS5003;65659;49.234;-2.094;2023-04-30T12:29:24;14;14;
73241;PMS5003;65659;49.234;-2.094;2023-04-30T12:31:50;15;15;
73241;PMS5003;65659;49.234;-2.094;2023-04-30T12:34:15;20;19;
73241;PMS5003;65659;49.234;-2.094;2023-04-30T12:36:40;15;15;
73241;PMS5003;65659;49.234;-2.094;2023-04-30T12:39:06;16;15;
73241;PMS5003;65659;49.234;-2.094;2023-04-30T12:41:34;12;12;
73241;PMS5003;65659;49.234;-2.094;2023-04-30T12:48:48;15;15;
73241;PMS5003;65659;49.234;-2.094;2023-04-30T12:51:18;12;11;
73241;PMS5003;65659;49.234;-2.094;2023-04-30T12:53:43;15;14;
73241;PMS5003;65659;49.234;-2.094;2023-04-30T12:56:06;13;13;
73241;PMS5003;65659;49.234;-2.094;2023-04-30T12:58:30;15;13;
73241;PMS5003;65659;49.234;-2.094;2023-04-30T13:00:56;11;10;
73241;PMS5003;65659;49.234;-2.094;2023-04-30T13:03:21;13;11;
73241;PMS5003;65659;49.234;-2.094;2023-04-30T13:05:48;15;15;
73241;PMS5003;65659;49.234;-2.094;2023-04-30T13:08:13;12;12;
73241;PMS5003;65659;49.234;-2.094;2023-04-30T13:10:39;15;15;
73241;PMS5003;65659;49.234;-2.094;2023-04-30T13:13:04;12;12;
73241;PMS5003;65659;49.234;-2.094;2023-04-30T13:15:29;14;14;
73241;PMS5003;65659;49.234;-2.094;2023-04-30T13:17:55;12;12;
73241;PMS5003;65659;49.234;-2.094;2023-04-30T13:20:20;12;12;
73241;PMS5003;65659;49.234;-2.094;2023-04-30T13:22:46;14;14;
73241;PMS5003;65659;49.234;-2.094;2023-04-30T13:25:11;11;11;
73241;PMS5003;65659;49.234;-2.094;2023-04-30T13:27:36;16;15;
73241;PMS5003;65659;49.234;-2.094;2023-04-30T13:30:02;15;14;
73241;PMS5003;65659;49.234;-2.094;2023-04-30T13:32:27;18;18;
73241;PMS5003;65659;49.234;-2.094;2023-04-30T13:34:53;13;13;
73241;PMS5003;65659;49.234;-2.094;2023-04-30T13:37:18;16;16;
73241;PMS5003;65659;49.234;-2.094;2023-04-30T13:39:44;13;13;
73241;PMS5003;65659;49.234;-2.094;2023-04-30T13:42:09;12;12;
73241;PMS5003;65659;49.234;-2.094;2023-04-30T13:44:34;15;14;
73241;PMS5003;65659;49.234;-2.094;2023-04-30T13:47:00;11;11;
73241;PMS5003;65659;49.234;-2.094;2023-04-30T13:49:25;12;11;
73241;PMS5003;65659;49.234;-2.094;2023-04-30T13:51:51;12;12;
73241;PMS5003;65659;49.234;-2.094;2023-04-30T13:54:17;10;10;
73241;PMS5003;65659;49.234;-2.094;2023-04-30T13:56:42;17;16;
73241;PMS5003;65659;49.234;-2.094;2023-04-30T13:59:08;13;13;
73241;PMS5003;65659;49.234;-2.094;2023-04-30T14:01:33;16;14;
73241;PMS5003;65659;49.234;-2.094;2023-04-30T14:03:59;16;16;
73241;PMS5003;65659;49.234;-2.094;2023-04-30T14:06:24;16;16;
73241;PMS5003;65659;49.234;-2.094;2023-04-30T14:08:50;13;13;
73241;PMS5003;65659;49.234;-2.094;2023-04-30T14:11:16;14;14;
73241;PMS5003;65659;49.234;-2.094;2023-04-30T14:13:41;10;10;
73241;PMS5003;65659;49.234;-2.094;2023-04-30T14:16:07;15;14;
73241;PMS5003;65659;49.234;-2.094;2023-04-30T14:18:32;11;11;
73241;PMS5003;65659;49.234;-2.094;2023-04-30T14:20:58;12;12;
73241;PMS5003;65659;49.234;-2.094;2023-04-30T14:23:24;14;13;
73241;PMS5003;65659;49.234;-2.094;2023-04-30T14:25:50;16;15;
73241;PMS5003;65659;49.234;-2.094;2023-04-30T14:28:15;16;16;
73241;PMS5003;65659;49.234;-2.094;2023-04-30T14:30:41;11;11;
73241;PMS5003;65659;49.234;-2.094;2023-04-30T14:33:06;10;10;
73241;PMS5003;65659;49.234;-2.094;2023-04-30T14:35:32;13;13;
73241;PMS5003;65659;49.234;-2.094;2023-04-30T14:37:58;12;12;
73241;PMS5003;65659;49.234;-2.094;2023-04-30T14:40:24;12;12;
73241;PMS5003;65659;49.234;-2.094;2023-04-30T14:42:49;14;14;
73241;PMS5003;65659;49.234;-2.094;2023-04-30T14:45:15;14;13;
73241;PMS5003;65659;49.234;-2.094;2023-04-30T14:47:40;12;12;
73241;PMS5003;65659;49.234;-2.094;2023-04-30T14:50:06;13;12;
73241;PMS5003;65659;49.234;-2.094;2023-04-30T14:52:32;13;13;
73241;PMS5003;65659;49.234;-2.094;2023-04-30T14:54:57;14;12;
73241;PMS5003;65659;49.234;-2.094;2023-04-30T14:57:23;13;12;
73241;PMS5003;65659;49.234;-2.094;2023-04-30T14:59:48;11;11;
73241;PMS5003;65659;49.234;-2.094;2023-04-30T15:02:14;13;11;
73241;PMS5003;65659;49.234;-2.094;2023-04-30T15:04:40;11;11;
73241;PMS5003;65659;49.234;-2.094;2023-04-30T15:07:04;14;14;
73241;PMS5003;65659;49.234;-2.094;2023-04-30T15:09:30;14;13;
73241;PMS5003;65659;49.234;-2.094;2023-04-30T15:11:56;12;11;
73241;PMS5003;65659;49.234;-2.094;2023-04-30T15:14:21;13;11;
73241;PMS5003;65659;49.234;-2.094;2023-04-30T15:16:46;17;17;
73241;PMS5003;65659;49.234;-2.094;2023-04-30T15:19:12;13;13;
73241;PMS5003;65659;49.234;-2.094;2023-04-30T15:21:37;14;14;
73241;PMS5003;65659;49.234;-2.094;2023-04-30T15:24:03;11;10;
73241;PMS5003;65659;49.234;-2.094;2023-04-30T15:26:29;12;11;
73241;PMS5003;65659;49.234;-2.094;2023-04-30T15:28:55;15;14;
73241;PMS5003;65659;49.234;-2.094;2023-04-30T15:31:20;13;13;
73241;PMS5003;65659;49.234;-2.094;2023-04-30T15:33:46;11;10;
73241;PMS5003;65659;49.234;-2.094;2023-04-30T15:36:12;12;11;
73241;PMS5003;65659;49.234;-2.094;2023-04-30T15:38:37;15;14;
73241;PMS5003;65659;49.234;-2.094;2023-04-30T15:41:02;12;11;
73241;PMS5003;65659;49.234;-2.094;2023-04-30T15:43:28;10;10;
73241;PMS5003;65659;49.234;-2.094;2023-04-30T15:45:54;13;13;
73241;PMS5003;65659;49.234;-2.094;2023-04-30T15:48:19;14;13;
73241;PMS5003;65659;49.234;-2.094;2023-04-30T15:50:45;12;12;
73241;PMS5003;65659;49.234;-2.094;2023-04-30T15:53:11;12;12;
73241;PMS5003;65659;49.234;-2.094;2023-04-30T15:55:37;11;11;
73241;PMS5003;65659;49.234;-2.094;2023-04-30T15:58:02;13;13;
73241;PMS5003;65659;49.234;-2.094;2023-04-30T16:00:28;13;13;
73241;PMS5003;65659;49.234;-2.094;2023-04-30T16:02:54;11;11;
73241;PMS5003;65659;49.234;-2.094;2023-04-30T16:05:19;10;10;
73241;PMS5003;65659;49.234;-2.094;2023-04-30T16:07:45;9;9;
73241;PMS5003;65659;49.234;-2.094;2023-04-30T16:10:11;10;10;
73241;PMS5003;65659;49.234;-2.094;2023-04-30T16:12:36;9;9;
73241;PMS5003;65659;49.234;-2.094;2023-04-30T16:15:02;12;11;
73241;PMS5003;65659;49.234;-2.094;2023-04-30T16:17:28;8;7;
73241;PMS5003;65659;49.234;-2.094;2023-04-30T16:19:54;8;8;
73241;PMS5003;65659;49.234;-2.094;2023-04-30T16:22:19;9;9;